createdAt,value
2017-04-15T00:00:05.780Z,43.74
2017-04-15T00:01:06.122Z,43.64
2017-04-15T00:02:06.141Z,43.64
2017-04-15T00:03:06.190Z,43.74
2017-04-15T00:04:06.203Z,43.74
2017-04-15T00:05:06.235Z,43.64
2017-04-15T00:06:06.264Z,43.84
2017-04-15T00:07:06.282Z,43.74
2017-04-15T00:08:06.312Z,43.84
2017-04-15T00:09:06.340Z,43.84
2017-04-15T00:10:06.366Z,43.35
2017-04-15T00:11:06.393Z,43.64
2017-04-15T00:12:06.421Z,43.43
2017-04-15T00:13:06.134Z,43.62
2017-04-15T00:14:06.478Z,43.54
2017-04-15T00:15:06.187Z,43.45
2017-04-15T00:16:06.782Z,43.24
2017-04-15T00:17:06.255Z,43.24
2017-04-15T00:18:06.585Z,43.54
2017-04-15T00:19:06.300Z,43.35
2017-04-15T00:20:06.639Z,43.45
2017-04-15T00:21:06.916Z,43.26
2017-04-15T00:22:06.693Z,43.33
2017-04-15T00:23:06.725Z,43.14
2017-04-15T00:24:06.755Z,43.16
2017-04-15T00:25:06.775Z,43.35
2017-04-15T00:26:07.057Z,43.04
2017-04-15T00:27:06.833Z,43.06
2017-04-15T00:28:06.541Z,43.04
2017-04-15T00:29:06.886Z,43.06
2017-04-15T00:30:06.915Z,42.94
2017-04-15T00:31:07.195Z,43.06
2017-04-15T00:32:06.965Z,43.06
2017-04-15T00:33:06.997Z,42.85
2017-04-15T00:34:07.027Z,42.85
2017-04-15T00:35:07.047Z,42.66
2017-04-15T00:36:07.330Z,42.85
2017-04-15T00:37:07.113Z,42.75
2017-04-15T00:38:07.138Z,42.75
2017-04-15T00:39:06.851Z,43.52
2017-04-15T00:40:07.195Z,43.52
2017-04-15T00:41:07.470Z,43.24
2017-04-15T00:42:06.941Z,42.85
2017-04-15T00:43:07.268Z,42.75
2017-04-15T00:44:07.300Z,43.52
2017-04-15T00:45:07.328Z,43.04
2017-04-15T00:46:07.290Z,42.94
2017-04-15T00:47:07.385Z,43.14
2017-04-15T00:48:07.092Z,43.24
2017-04-15T00:49:07.924Z,43.04
2017-04-15T00:50:07.891Z,42.85
2017-04-15T00:51:07.733Z,42.66
2017-04-15T00:52:07.744Z,43.04
2017-04-15T00:53:07.563Z,43.14
2017-04-15T00:54:07.257Z,43.33
2017-04-15T00:55:07.599Z,43.33
2017-04-15T00:56:07.629Z,43.24
2017-04-15T00:57:07.655Z,43.24
2017-04-15T00:58:07.700Z,43.33
2017-04-15T00:59:07.401Z,43.24
2017-04-15T01:00:07.739Z,43.33
2017-04-15T01:01:07.455Z,43.33
2017-04-15T01:02:07.793Z,42.66
2017-04-15T01:03:07.821Z,43.24
2017-04-15T01:04:07.865Z,43.14
2017-04-15T01:05:07.560Z,43.14
2017-04-15T01:06:07.911Z,42.66
2017-04-15T01:07:07.932Z,42.66
2017-04-15T01:08:07.961Z,43.14
2017-04-15T01:09:07.677Z,42.66
2017-04-15T01:10:08.010Z,43.04
2017-04-15T01:11:08.035Z,42.75
2017-04-15T01:12:08.071Z,42.75
2017-04-15T01:13:08.092Z,42.56
2017-04-15T01:14:07.812Z,42.75
2017-04-15T01:15:07.840Z,42.75
2017-04-15T01:16:08.178Z,42.75
2017-04-15T01:17:08.210Z,42.94
2017-04-15T01:18:08.232Z,42.36
2017-04-15T01:19:08.261Z,42.75
2017-04-15T01:20:08.290Z,42.36
2017-04-15T01:21:08.318Z,42.66
2017-04-15T01:22:08.343Z,42.56
2017-04-15T01:23:08.366Z,42.56
2017-04-15T01:24:08.402Z,42.56
2017-04-15T01:25:08.425Z,42.56
2017-04-15T01:26:08.454Z,42.66
2017-04-15T01:27:08.490Z,42.66
2017-04-15T01:28:08.511Z,42.46
2017-04-15T01:29:08.535Z,42.75
2017-04-15T01:30:08.264Z,42.66
2017-04-15T01:31:08.585Z,42.75
2017-04-15T01:32:08.614Z,42.66
2017-04-15T01:33:08.642Z,42.75
2017-04-15T01:34:08.672Z,42.66
2017-04-15T01:35:08.388Z,42.75
2017-04-15T01:36:08.725Z,42.46
2017-04-15T01:37:08.754Z,42.75
2017-04-15T01:38:08.782Z,42.66
2017-04-15T01:39:08.803Z,42.56
2017-04-15T01:40:08.768Z,42.75
2017-04-15T01:41:08.556Z,42.46
2017-04-15T01:42:08.891Z,42.75
2017-04-15T01:43:08.914Z,42.36
2017-04-15T01:44:08.947Z,42.18
2017-04-15T01:45:08.974Z,42.18
2017-04-15T01:46:08.996Z,42.46
2017-04-15T01:47:09.028Z,42.36
2017-04-15T01:48:09.055Z,42.36
2017-04-15T01:49:09.087Z,42.46
2017-04-15T01:50:09.112Z,42.27
2017-04-15T01:51:09.137Z,42.46
2017-04-15T01:52:09.172Z,42.56
2017-04-15T01:53:08.881Z,42.56
2017-04-15T01:54:09.218Z,42.75
2017-04-15T01:55:09.247Z,42.46
2017-04-15T01:56:09.273Z,42.46
2017-04-15T01:57:09.301Z,42.18
2017-04-15T01:58:09.014Z,42.66
2017-04-15T01:59:09.043Z,42.66
2017-04-15T02:00:09.380Z,42.27
2017-04-15T02:01:09.093Z,42.46
2017-04-15T02:02:09.436Z,42.56
2017-04-15T02:03:09.153Z,42.46
2017-04-15T02:04:09.188Z,42.56
2017-04-15T02:05:09.519Z,42.18
2017-04-15T02:06:09.244Z,42.27
2017-04-15T02:07:09.570Z,42.56
2017-04-15T02:08:09.602Z,42.18
2017-04-15T02:09:09.326Z,42.18
2017-04-15T02:10:09.655Z,42.27
2017-04-15T02:11:09.679Z,42.18
2017-04-15T02:12:09.708Z,42.05
2017-04-15T02:13:09.742Z,42.18
2017-04-15T02:14:09.758Z,42.08
2017-04-15T02:15:09.483Z,41.98
2017-04-15T02:16:09.499Z,42.36
2017-04-15T02:17:10.092Z,42.18
2017-04-15T02:18:09.557Z,42.35
2017-04-15T02:19:09.894Z,42.36
2017-04-15T02:20:09.930Z,42.27
2017-04-15T02:21:09.955Z,42.36
2017-04-15T02:22:10.228Z,42.18
2017-04-15T02:23:10.012Z,42.35
2017-04-15T02:24:10.053Z,42.15
2017-04-15T02:25:10.069Z,42.44
2017-04-15T02:26:10.090Z,42.35
2017-04-15T02:27:10.374Z,42.44
2017-04-15T02:28:10.370Z,42.54
2017-04-15T02:29:09.857Z,42.54
2017-04-15T02:30:10.421Z,42.54
2017-04-15T02:31:10.234Z,42.54
2017-04-15T02:32:10.509Z,42.44
2017-04-15T02:33:10.284Z,42.44
2017-04-15T02:34:09.996Z,42.54
2017-04-15T02:35:10.029Z,42.54
2017-04-15T02:36:10.051Z,42.46
2017-04-15T02:37:10.639Z,42.54
2017-04-15T02:38:10.421Z,42.44
2017-04-15T02:39:10.450Z,42.54
2017-04-15T02:40:10.465Z,42.56
2017-04-15T02:41:10.508Z,42.44
2017-04-15T02:42:10.775Z,42.44
2017-04-15T02:43:10.553Z,42.54
2017-04-15T02:44:10.581Z,42.25
2017-04-15T02:45:10.602Z,42.25
2017-04-15T02:46:10.639Z,42.25
2017-04-15T02:47:10.667Z,42.15
2017-04-15T02:48:10.691Z,42.54
2017-04-15T02:49:10.608Z,42.54
2017-04-15T02:50:10.740Z,42.54
2017-04-15T02:51:10.794Z,42.54
2017-04-15T02:52:10.808Z,42.35
2017-04-15T02:53:10.545Z,42.05
2017-04-15T02:54:11.328Z,42.35
2017-04-15T02:55:11.117Z,42.44
2017-04-15T02:56:10.905Z,42.35
2017-04-15T02:57:10.934Z,42.25
2017-04-15T02:58:10.963Z,42.25
2017-04-15T02:59:10.992Z,42.35
2017-04-15T03:00:11.010Z,42.44
2017-04-15T03:01:11.046Z,42.44
2017-04-15T03:02:11.070Z,42.44
2017-04-15T03:03:11.100Z,42.44
2017-04-15T03:04:11.128Z,42.35
2017-04-15T03:05:11.144Z,42.35
2017-04-15T03:06:11.186Z,42.35
2017-04-15T03:07:10.894Z,42.35
2017-04-15T03:08:11.235Z,42.35
2017-04-15T03:09:11.264Z,42.25
2017-04-15T03:10:11.288Z,42.44
2017-04-15T03:11:11.317Z,42.25
2017-04-15T03:12:11.339Z,42.35
2017-04-15T03:13:11.371Z,42.35
2017-04-15T03:14:11.401Z,42.35
2017-04-15T03:15:11.417Z,42.35
2017-04-15T03:16:11.449Z,42.25
2017-04-15T03:17:11.482Z,42.35
2017-04-15T03:18:11.195Z,42.15
2017-04-15T03:19:11.535Z,42.25
2017-04-15T03:20:11.249Z,42.25
2017-04-15T03:21:11.589Z,42.25
2017-04-15T03:22:11.621Z,42.25
2017-04-15T03:23:11.326Z,42.25
2017-04-15T03:24:11.671Z,42.35
2017-04-15T03:25:11.692Z,42.25
2017-04-15T03:26:11.724Z,42.25
2017-04-15T03:27:11.749Z,42.25
2017-04-15T03:28:11.779Z,42.25
2017-04-15T03:29:11.806Z,42.25
2017-04-15T03:30:11.516Z,42.25
2017-04-15T03:31:11.856Z,42.25
2017-04-15T03:32:11.573Z,42.15
2017-04-15T03:33:12.166Z,42.15
2017-04-15T03:34:11.939Z,42.25
2017-04-15T03:35:11.968Z,42.25
2017-04-15T03:36:11.996Z,42.15
2017-04-15T03:37:12.022Z,42.15
2017-04-15T03:38:12.302Z,42.35
2017-04-15T03:39:12.067Z,42.25
2017-04-15T03:40:12.099Z,42.44
2017-04-15T03:41:11.820Z,42.54
2017-04-15T03:42:12.152Z,42.05
2017-04-15T03:43:12.437Z,42.05
2017-04-15T03:44:12.209Z,42.44
2017-04-15T03:45:12.238Z,42.25
2017-04-15T03:46:12.259Z,42.44
2017-04-15T03:47:12.288Z,42.35
2017-04-15T03:48:12.572Z,42.44
2017-04-15T03:49:12.348Z,42.35
2017-04-15T03:50:12.390Z,42.35
2017-04-15T03:51:12.404Z,42.35
2017-04-15T03:52:12.115Z,42.35
2017-04-15T03:53:12.712Z,42.35
2017-04-15T03:54:12.482Z,42.35
2017-04-15T03:55:12.507Z,42.44
2017-04-15T03:56:12.534Z,42.05
2017-04-15T03:57:12.563Z,42.25
2017-04-15T03:58:12.281Z,42.25
2017-04-15T03:59:12.624Z,42.25
2017-04-15T04:00:12.646Z,42.35
2017-04-15T04:01:12.363Z,42.35
2017-04-15T04:02:12.389Z,42.44
2017-04-15T04:03:12.724Z,42.05
2017-04-15T04:04:12.755Z,42.44
2017-04-15T04:05:12.774Z,42.35
2017-04-15T04:06:12.495Z,42.35
2017-04-15T04:07:12.524Z,42.54
2017-04-15T04:08:12.865Z,41.86
2017-04-15T04:09:12.893Z,42.44
2017-04-15T04:10:12.909Z,42.25
2017-04-15T04:11:12.943Z,42.35
2017-04-15T04:12:12.964Z,42.35
2017-04-15T04:13:12.993Z,42.23
2017-04-15T04:14:13.020Z,42.54
2017-04-15T04:15:13.062Z,41.96
2017-04-15T04:16:13.076Z,41.96
2017-04-15T04:17:12.788Z,42.54
2017-04-15T04:18:12.820Z,41.84
2017-04-15T04:19:12.836Z,41.75
2017-04-15T04:20:13.186Z,41.84
2017-04-15T04:21:13.214Z,42.05
2017-04-15T04:22:13.235Z,42.52
2017-04-15T04:23:12.964Z,42.23
2017-04-15T04:24:13.293Z,42.42
2017-04-15T04:25:13.321Z,42.32
2017-04-15T04:26:13.349Z,42.23
2017-04-15T04:27:13.386Z,42.25
2017-04-15T04:28:13.400Z,42.32
2017-04-15T04:29:13.115Z,42.32
2017-04-15T04:30:13.456Z,42.42
2017-04-15T04:31:13.173Z,42.44
2017-04-15T04:32:13.508Z,42.44
2017-04-15T04:33:13.227Z,42.15
2017-04-15T04:34:13.258Z,42.42
2017-04-15T04:35:13.277Z,42.44
2017-04-15T04:36:13.305Z,42.25
2017-04-15T04:37:13.334Z,42.25
2017-04-15T04:38:13.357Z,42.35
2017-04-15T04:39:13.697Z,42.35
2017-04-15T04:40:13.729Z,42.25
2017-04-15T04:41:13.754Z,42.44
2017-04-15T04:42:13.478Z,42.35
2017-04-15T04:43:13.806Z,42.44
2017-04-15T04:44:13.835Z,42.44
2017-04-15T04:45:13.859Z,42.54
2017-04-15T04:46:13.889Z,42.15
2017-04-15T04:47:13.911Z,42.54
2017-04-15T04:48:13.945Z,42.63
2017-04-15T04:49:13.980Z,42.54
2017-04-15T04:50:13.683Z,42.44
2017-04-15T04:51:14.024Z,42.35
2017-04-15T04:52:14.044Z,42.25
2017-04-15T04:53:14.082Z,42.25
2017-04-15T04:54:14.116Z,42.25
2017-04-15T04:55:13.820Z,42.15
2017-04-15T04:56:14.160Z,42.35
2017-04-15T04:57:14.185Z,42.54
2017-04-15T04:58:14.214Z,42.46
2017-04-15T04:59:14.239Z,42.05
2017-04-15T05:00:14.267Z,41.78
2017-04-15T05:01:14.296Z,41.78
2017-04-15T05:02:14.321Z,41.78
2017-04-15T05:03:14.038Z,42.27
2017-04-15T05:04:14.314Z,42.08
2017-04-15T05:05:14.405Z,41.98
2017-04-15T05:06:14.429Z,42.18
2017-04-15T05:07:14.461Z,42.18
2017-04-15T05:08:14.477Z,41.98
2017-04-15T05:09:14.450Z,41.98
2017-04-15T05:10:14.539Z,41.5
2017-04-15T05:11:14.567Z,41.5
2017-04-15T05:12:14.591Z,41.5
2017-04-15T05:13:14.617Z,41.4
2017-04-15T05:14:14.895Z,41.6
2017-04-15T05:15:14.670Z,41.6
2017-04-15T05:16:14.704Z,41.6
2017-04-15T05:17:14.731Z,41.3
2017-04-15T05:18:14.445Z,41.3
2017-04-15T05:19:15.036Z,41.5
2017-04-15T05:20:14.803Z,41.5
2017-04-15T05:21:14.839Z,41.5
2017-04-15T05:22:14.864Z,41.4
2017-04-15T05:23:14.893Z,41.3
2017-04-15T05:24:14.858Z,41.2
2017-04-15T05:25:14.946Z,41.3
2017-04-15T05:26:14.974Z,41.5
2017-04-15T05:27:15.000Z,41.6
2017-04-15T05:28:15.029Z,41.5
2017-04-15T05:29:15.306Z,41.2
2017-04-15T05:30:15.079Z,41.5
2017-04-15T05:31:15.112Z,41.52
2017-04-15T05:32:15.140Z,41.33
2017-04-15T05:33:15.173Z,41.6
2017-04-15T05:34:15.445Z,41.2
2017-04-15T05:35:15.219Z,41.42
2017-04-15T05:36:15.243Z,41.3
2017-04-15T05:37:15.272Z,41.23
2017-04-15T05:38:15.301Z,41.23
2017-04-15T05:39:15.577Z,41.42
2017-04-15T05:40:15.345Z,41.33
2017-04-15T05:41:15.381Z,41.33
2017-04-15T05:42:15.099Z,41.42
2017-04-15T05:43:15.440Z,41.52
2017-04-15T05:44:15.396Z,41.42
2017-04-15T05:45:15.507Z,41.33
2017-04-15T05:46:15.519Z,41.71
2017-04-15T05:47:15.548Z,41.61
2017-04-15T05:48:15.272Z,40.84
2017-04-15T05:49:15.852Z,40.94
2017-04-15T05:50:15.637Z,41.03
2017-04-15T05:51:15.493Z,40.84
2017-04-15T05:52:15.371Z,40.75
2017-04-15T05:53:15.708Z,40.94
2017-04-15T05:54:15.733Z,41.03
2017-04-15T05:55:15.765Z,40.75
2017-04-15T05:56:15.781Z,40.65
2017-04-15T05:57:15.817Z,41.03
2017-04-15T05:58:15.847Z,40.94
2017-04-15T05:59:15.868Z,40.84
2017-04-15T06:00:15.593Z,41.23
2017-04-15T06:01:15.926Z,40.94
2017-04-15T06:02:15.960Z,40.86
2017-04-15T06:03:15.985Z,40.55
2017-04-15T06:04:16.013Z,40.94
2017-04-15T06:05:16.038Z,40.96
2017-04-15T06:06:16.073Z,40.84
2017-04-15T06:07:16.090Z,40.96
2017-04-15T06:08:15.815Z,40.75
2017-04-15T06:09:16.149Z,41.15
2017-04-15T06:10:16.177Z,40.57
2017-04-15T06:11:16.199Z,40.57
2017-04-15T06:12:16.235Z,40.57
2017-04-15T06:13:15.947Z,40.67
2017-04-15T06:14:16.288Z,40.86
2017-04-15T06:15:16.469Z,40.67
2017-04-15T06:16:16.029Z,40.86
2017-04-15T06:17:16.060Z,40.77
2017-04-15T06:18:16.399Z,40.86
2017-04-15T06:19:16.421Z,40.57
2017-04-15T06:20:16.455Z,40.57
2017-04-15T06:21:16.482Z,40.67
2017-04-15T06:22:16.510Z,40.19
2017-04-15T06:23:16.547Z,40.28
2017-04-15T06:24:16.251Z,40.09
2017-04-15T06:25:16.281Z,40.47
2017-04-15T06:26:16.314Z,40.19
2017-04-15T06:27:16.649Z,40.19
2017-04-15T06:28:16.670Z,40.09
2017-04-15T06:29:16.699Z,40.09
2017-04-15T06:30:16.728Z,40.28
2017-04-15T06:31:16.757Z,40.28
2017-04-15T06:32:16.786Z,39.7
2017-04-15T06:33:16.812Z,39.41
2017-04-15T06:34:16.843Z,39.9
2017-04-15T06:35:16.557Z,39.99
2017-04-15T06:36:16.893Z,40.09
2017-04-15T06:37:16.919Z,39.99
2017-04-15T06:38:16.947Z,39.99
2017-04-15T06:39:16.986Z,39.99
2017-04-15T06:40:17.012Z,40.09
2017-04-15T06:41:17.033Z,39.9
2017-04-15T06:42:17.066Z,39.99
2017-04-15T06:43:17.090Z,39.99
2017-04-15T06:44:17.123Z,39.99
2017-04-15T06:45:17.139Z,39.9
2017-04-15T06:46:16.856Z,39.9
2017-04-15T06:47:17.206Z,39.99
2017-04-15T06:48:17.225Z,40.09
2017-04-15T06:49:17.255Z,39.7
2017-04-15T06:50:17.283Z,40.09
2017-04-15T06:51:17.301Z,40.09
2017-04-15T06:52:17.338Z,39.9
2017-04-15T06:53:17.367Z,40.09
2017-04-15T06:54:17.394Z,40.09
2017-04-15T06:55:17.676Z,39.9
2017-04-15T06:56:17.457Z,39.9
2017-04-15T06:57:17.474Z,39.7
2017-04-15T06:58:17.506Z,39.7
2017-04-15T06:59:17.531Z,39.7
2017-04-15T07:00:17.491Z,39.7
2017-04-15T07:01:17.593Z,39.61
2017-04-15T07:02:17.613Z,39.32
2017-04-15T07:03:17.338Z,39.61
2017-04-15T07:04:17.678Z,39.61
2017-04-15T07:05:17.952Z,39.32
2017-04-15T07:06:17.724Z,39.22
2017-04-15T07:07:17.757Z,39.61
2017-04-15T07:08:17.778Z,39.41
2017-04-15T07:09:17.806Z,39.61
2017-04-15T07:10:18.083Z,39.61
2017-04-15T07:11:17.867Z,39.61
2017-04-15T07:12:17.892Z,39.61
2017-04-15T07:13:17.607Z,39.51
2017-04-15T07:14:17.942Z,39.51
2017-04-15T07:15:18.223Z,39.51
2017-04-15T07:16:18.003Z,39.61
2017-04-15T07:17:18.031Z,39.61
2017-04-15T07:18:18.060Z,39.61
2017-04-15T07:19:18.082Z,39.61
2017-04-15T07:20:18.362Z,39.41
2017-04-15T07:21:18.148Z,39.32
2017-04-15T07:22:18.168Z,39.61
2017-04-15T07:23:17.889Z,39.51
2017-04-15T07:24:18.222Z,39.41
2017-04-15T07:25:18.507Z,39.12
2017-04-15T07:26:18.275Z,39.12
2017-04-15T07:27:18.304Z,39.22
2017-04-15T07:28:18.023Z,39.32
2017-04-15T07:29:18.366Z,39.41
2017-04-15T07:30:18.647Z,39.61
2017-04-15T07:31:18.107Z,39.22
2017-04-15T07:32:18.136Z,38.83
2017-04-15T07:33:18.476Z,38.74
2017-04-15T07:34:18.505Z,39.03
2017-04-15T07:35:18.470Z,39.32
2017-04-15T07:36:18.241Z,38.54
2017-04-15T07:37:18.589Z,39.12
2017-04-15T07:38:18.620Z,38.93
2017-04-15T07:39:18.638Z,39.32
2017-04-15T07:40:18.915Z,39.22
2017-04-15T07:41:18.720Z,38.85
2017-04-15T07:42:18.728Z,39.03
2017-04-15T07:43:18.929Z,38.64
2017-04-15T07:44:18.780Z,38.85
2017-04-15T07:45:19.063Z,38.85
2017-04-15T07:46:18.839Z,39.14
2017-04-15T07:47:18.867Z,38.76
2017-04-15T07:48:18.585Z,38.66
2017-04-15T07:49:18.610Z,38.54
2017-04-15T07:50:19.196Z,38.76
2017-04-15T07:51:18.980Z,38.66
2017-04-15T07:52:19.008Z,39.24
2017-04-15T07:53:19.037Z,38.76
2017-04-15T07:54:19.053Z,38.56
2017-04-15T07:55:19.341Z,39.04
2017-04-15T07:56:19.118Z,38.64
2017-04-15T07:57:19.143Z,38.64
2017-04-15T07:58:19.171Z,38.74
2017-04-15T07:59:18.886Z,38.83
2017-04-15T08:00:19.476Z,39.32
2017-04-15T08:01:19.253Z,39.12
2017-04-15T08:02:19.291Z,38.74
2017-04-15T08:03:19.312Z,38.93
2017-04-15T08:04:19.340Z,37.87
2017-04-15T08:05:19.617Z,37.79
2017-04-15T08:06:19.397Z,37.88
2017-04-15T08:07:19.422Z,38.08
2017-04-15T08:08:19.478Z,38.08
2017-04-15T08:09:19.480Z,38.76
2017-04-15T08:10:19.760Z,38.95
2017-04-15T08:11:19.225Z,38.76
2017-04-15T08:12:19.566Z,39.04
2017-04-15T08:13:19.592Z,38.85
2017-04-15T08:14:19.304Z,38.85
2017-04-15T08:15:19.588Z,38.46
2017-04-15T08:16:19.678Z,38.08
2017-04-15T08:17:19.705Z,38.08
2017-04-15T08:18:19.816Z,37.79
2017-04-15T08:19:19.755Z,38.18
2017-04-15T08:20:19.726Z,38.95
2017-04-15T08:21:19.510Z,37.98
2017-04-15T08:22:19.534Z,38.08
2017-04-15T08:23:19.871Z,37.88
2017-04-15T08:24:19.924Z,38.08
2017-04-15T08:25:20.227Z,37.6
2017-04-15T08:26:19.958Z,37.6
2017-04-15T08:27:19.983Z,37.4
2017-04-15T08:28:20.009Z,37.21
2017-04-15T08:29:19.732Z,37.79
2017-04-15T08:30:20.319Z,37.6
2017-04-15T08:31:20.097Z,37.4
2017-04-15T08:32:20.123Z,37.5
2017-04-15T08:33:19.835Z,37.6
2017-04-15T08:34:19.872Z,37.4
2017-04-15T08:35:20.454Z,37.21
2017-04-15T08:36:19.925Z,36.44
2017-04-15T08:37:19.950Z,36.92
2017-04-15T08:38:20.307Z,36.44
2017-04-15T08:39:20.324Z,36.82
2017-04-15T08:40:20.291Z,36.44
2017-04-15T08:41:20.384Z,36.72
2017-04-15T08:42:20.401Z,36.92
2017-04-15T08:43:20.425Z,36.34
2017-04-15T08:44:20.462Z,35.95
2017-04-15T08:45:20.422Z,35.66
2017-04-15T08:46:20.516Z,36.24
2017-04-15T08:47:20.541Z,36.44
2017-04-15T08:48:20.575Z,36.05
2017-04-15T08:49:20.602Z,36.05
2017-04-15T08:50:20.874Z,35.86
2017-04-15T08:51:20.652Z,35.74
2017-04-15T08:52:20.684Z,35.66
2017-04-15T08:53:20.709Z,35.16
2017-04-15T08:54:20.747Z,35.06
2017-04-15T08:55:20.459Z,35.84
2017-04-15T08:56:20.480Z,34.87
2017-04-15T08:57:20.573Z,35.06
2017-04-15T08:58:20.853Z,35.84
2017-04-15T08:59:20.882Z,35.74
2017-04-15T09:00:20.595Z,34.97
2017-04-15T09:01:20.931Z,34.97
2017-04-15T09:02:20.652Z,35.45
2017-04-15T09:03:20.985Z,35.16
2017-04-15T09:04:21.019Z,34.87
2017-04-15T09:05:21.045Z,34.87
2017-04-15T09:06:21.212Z,35.06
2017-04-15T09:07:21.113Z,35.06
2017-04-15T09:08:21.129Z,34.58
2017-04-15T09:09:21.159Z,34
2017-04-15T09:10:21.183Z,34.29
2017-04-15T09:11:21.211Z,34.2
2017-04-15T09:12:20.933Z,34.29
2017-04-15T09:13:21.273Z,34.29
2017-04-15T09:14:21.306Z,34.39
2017-04-15T09:15:21.330Z,34.2
2017-04-15T09:16:21.355Z,34.48
2017-04-15T09:17:21.067Z,34.58
2017-04-15T09:18:21.409Z,34.87
2017-04-15T09:19:21.462Z,34.1
2017-04-15T09:20:21.470Z,34.39
2017-04-15T09:21:21.185Z,33.91
2017-04-15T09:22:21.214Z,34.5
2017-04-15T09:23:21.549Z,34.97
2017-04-15T09:24:21.581Z,34.39
2017-04-15T09:25:21.606Z,34
2017-04-15T09:26:21.324Z,34
2017-04-15T09:27:21.664Z,34.39
2017-04-15T09:28:21.375Z,34.58
2017-04-15T09:29:21.408Z,34.29
2017-04-15T09:30:21.438Z,34.2
2017-04-15T09:31:21.774Z,34.58
2017-04-15T09:32:21.799Z,34
2017-04-15T09:33:21.836Z,34.29
2017-04-15T09:34:21.864Z,34.29
2017-04-15T09:35:21.885Z,33.72
2017-04-15T09:36:21.599Z,33.91
2017-04-15T09:37:21.627Z,34.39
2017-04-15T09:38:21.972Z,34
2017-04-15T09:39:22.001Z,34
2017-04-15T09:40:22.030Z,34.48
2017-04-15T09:41:22.055Z,34.39
2017-04-15T09:42:22.079Z,34.29
2017-04-15T09:43:22.107Z,34.1
2017-04-15T09:44:22.143Z,34.58
2017-04-15T09:45:22.165Z,34.39
2017-04-15T09:46:22.197Z,34.29
2017-04-15T09:47:22.233Z,34.48
2017-04-15T09:48:22.252Z,34.39
2017-04-15T09:49:22.281Z,34.48
2017-04-15T09:50:21.993Z,34.1
2017-04-15T09:51:22.334Z,34.48
2017-04-15T09:52:22.366Z,34.39
2017-04-15T09:53:22.396Z,34
2017-04-15T09:54:22.420Z,34.1
2017-04-15T09:55:22.449Z,34.2
2017-04-15T09:56:22.473Z,34.48
2017-04-15T09:57:22.505Z,34.48
2017-04-15T09:58:22.534Z,34.87
2017-04-15T09:59:22.565Z,34.48
2017-04-15T10:00:22.597Z,34.39
2017-04-15T10:01:22.617Z,34.2
2017-04-15T10:02:22.637Z,34.29
2017-04-15T10:03:22.670Z,34
2017-04-15T10:04:22.699Z,34.39
2017-04-15T10:05:22.736Z,34.58
2017-04-15T10:06:22.757Z,34.1
2017-04-15T10:07:22.478Z,34.39
2017-04-15T10:08:22.834Z,34
2017-04-15T10:09:22.843Z,33.91
2017-04-15T10:10:22.872Z,33.91
2017-04-15T10:11:22.913Z,34.1
2017-04-15T10:12:22.929Z,33.81
2017-04-15T10:13:22.730Z,34.1
2017-04-15T10:14:22.986Z,33.91
2017-04-15T10:15:22.690Z,34.1
2017-04-15T10:16:22.725Z,34.48
2017-04-15T10:17:23.070Z,34
2017-04-15T10:18:22.787Z,34.39
2017-04-15T10:19:23.127Z,34.39
2017-04-15T10:20:23.144Z,34.2
2017-04-15T10:21:23.172Z,33.81
2017-04-15T10:22:23.213Z,33.91
2017-04-15T10:23:23.238Z,33.81
2017-04-15T10:24:22.954Z,34.58
2017-04-15T10:25:23.295Z,34.29
2017-04-15T10:26:23.315Z,34.2
2017-04-15T10:27:23.353Z,33.91
2017-04-15T10:28:23.377Z,34.2
2017-04-15T10:29:23.406Z,34.29
2017-04-15T10:30:23.119Z,34.29
2017-04-15T10:31:23.460Z,34.87
2017-04-15T10:32:23.492Z,34.78
2017-04-15T10:33:23.521Z,34.68
2017-04-15T10:34:23.550Z,34.2
2017-04-15T10:35:23.575Z,34.39
2017-04-15T10:36:23.604Z,34.39
2017-04-15T10:37:23.628Z,34.29
2017-04-15T10:38:23.809Z,34
2017-04-15T10:39:23.684Z,34
2017-04-15T10:40:23.714Z,34
2017-04-15T10:41:23.744Z,34.66
2017-04-15T10:42:23.771Z,34.18
2017-04-15T10:43:23.802Z,34.28
2017-04-15T10:44:23.829Z,35.24
2017-04-15T10:45:23.859Z,34.86
2017-04-15T10:46:23.890Z,35.34
2017-04-15T10:47:23.911Z,34.66
2017-04-15T10:48:23.948Z,34.76
2017-04-15T10:49:23.654Z,35.14
2017-04-15T10:50:23.997Z,35.14
2017-04-15T10:51:24.027Z,34.95
2017-04-15T10:52:24.055Z,34.76
2017-04-15T10:53:24.074Z,35.24
2017-04-15T10:54:24.108Z,34.86
2017-04-15T10:55:24.338Z,35.24
2017-04-15T10:56:24.166Z,35.24
2017-04-15T10:57:24.191Z,36.11
2017-04-15T10:58:23.911Z,35.63
2017-04-15T10:59:24.248Z,35.82
2017-04-15T11:00:24.274Z,35.72
2017-04-15T11:01:24.306Z,35.82
2017-04-15T11:02:24.331Z,35.82
2017-04-15T11:03:24.363Z,35.72
2017-04-15T11:04:24.392Z,35.63
2017-04-15T11:05:24.105Z,36.01
2017-04-15T11:06:24.694Z,35.72
2017-04-15T11:07:24.475Z,35.8
2017-04-15T11:08:24.503Z,35.82
2017-04-15T11:09:24.545Z,35.71
2017-04-15T11:10:24.557Z,35.9
2017-04-15T11:11:24.841Z,35.52
2017-04-15T11:12:24.615Z,36.38
2017-04-15T11:13:24.643Z,36.38
2017-04-15T11:14:24.665Z,36.48
2017-04-15T11:15:24.698Z,36.48
2017-04-15T11:16:24.978Z,36.48
2017-04-15T11:17:24.754Z,36.87
2017-04-15T11:18:24.787Z,36.38
2017-04-15T11:19:25.016Z,36.38
2017-04-15T11:20:24.819Z,36.38
2017-04-15T11:21:25.417Z,36.77
2017-04-15T11:22:24.893Z,37.35
2017-04-15T11:23:24.918Z,37.45
2017-04-15T11:24:24.636Z,37.15
2017-04-15T11:25:24.973Z,36.87
2017-04-15T11:26:25.258Z,36.67
2017-04-15T11:27:25.030Z,37.06
2017-04-15T11:28:25.057Z,36.87
2017-04-15T11:29:24.768Z,37.25
2017-04-15T11:30:25.103Z,37.54
2017-04-15T11:31:24.830Z,37.15
2017-04-15T11:32:24.858Z,37.06
2017-04-15T11:33:24.887Z,36.67
2017-04-15T11:34:25.222Z,37.06
2017-04-15T11:35:25.244Z,37.25
2017-04-15T11:36:25.289Z,37.25
2017-04-15T11:37:25.309Z,37.35
2017-04-15T11:38:25.334Z,37.35
2017-04-15T11:39:25.363Z,38.12
2017-04-15T11:40:25.411Z,37.93
2017-04-15T11:41:25.416Z,37.93
2017-04-15T11:42:25.443Z,37.73
2017-04-15T11:43:25.473Z,37.93
2017-04-15T11:44:25.568Z,38.02
2017-04-15T11:45:25.524Z,38.02
2017-04-15T11:46:25.239Z,37.63
2017-04-15T11:47:25.586Z,37.54
2017-04-15T11:48:25.601Z,37.63
2017-04-15T11:49:25.643Z,37.63
2017-04-15T11:50:25.662Z,37.93
2017-04-15T11:51:25.691Z,37.93
2017-04-15T11:52:25.719Z,38.21
2017-04-15T11:53:25.754Z,38.21
2017-04-15T11:54:25.775Z,38.12
2017-04-15T11:55:25.807Z,38.02
2017-04-15T11:56:25.833Z,37.93
2017-04-15T11:57:25.862Z,38.02
2017-04-15T11:58:25.885Z,38.12
2017-04-15T11:59:25.947Z,38.41
2017-04-15T12:00:25.939Z,37.73
2017-04-15T12:01:25.967Z,38.12
2017-04-15T12:02:26.000Z,38.31
2017-04-15T12:03:25.715Z,37.93
2017-04-15T12:04:26.050Z,38.21
2017-04-15T12:05:26.082Z,38.02
2017-04-15T12:06:26.103Z,38.51
2017-04-15T12:07:26.136Z,38.99
2017-04-15T12:08:26.161Z,38.79
2017-04-15T12:09:26.195Z,38.79
2017-04-15T12:10:25.903Z,38.7
2017-04-15T12:11:25.935Z,38.79
2017-04-15T12:12:26.280Z,38.79
2017-04-15T12:13:26.286Z,38.7
2017-04-15T12:14:26.334Z,38.99
2017-04-15T12:15:26.041Z,39.18
2017-04-15T12:16:26.382Z,38.99
2017-04-15T12:17:26.397Z,38.51
2017-04-15T12:18:26.440Z,38.6
2017-04-15T12:19:26.476Z,38.6
2017-04-15T12:20:26.494Z,38.6
2017-04-15T12:21:26.523Z,38.89
2017-04-15T12:22:26.799Z,38.51
2017-04-15T12:23:26.577Z,38.79
2017-04-15T12:24:26.604Z,39.18
2017-04-15T12:25:26.629Z,38.7
2017-04-15T12:26:26.666Z,38.6
2017-04-15T12:27:26.964Z,38.7
2017-04-15T12:28:26.753Z,38.51
2017-04-15T12:29:26.437Z,38.89
2017-04-15T12:30:26.789Z,38.99
2017-04-15T12:31:26.828Z,38.79
2017-04-15T12:32:27.078Z,38.99
2017-04-15T12:33:26.853Z,38.99
2017-04-15T12:34:26.870Z,38.6
2017-04-15T12:35:26.919Z,39.18
2017-04-15T12:36:26.932Z,38.99
2017-04-15T12:37:26.923Z,38.89
2017-04-15T12:38:26.988Z,38.79
2017-04-15T12:39:27.025Z,38.6
2017-04-15T12:40:27.067Z,38.99
2017-04-15T12:41:27.089Z,39.09
2017-04-15T12:42:27.039Z,38.99
2017-04-15T12:43:27.520Z,39.09
2017-04-15T12:44:26.843Z,38.7
2017-04-15T12:45:27.142Z,39.18
2017-04-15T12:46:27.142Z,38.89
2017-04-15T12:47:28.184Z,38.99
2017-04-15T12:48:27.876Z,39.09
2017-04-15T12:49:27.939Z,38.99
2017-04-15T12:50:27.523Z,38.99
2017-04-15T12:51:27.727Z,38.79
2017-04-15T12:52:27.680Z,38.99
2017-04-15T12:53:27.606Z,38.99
2017-04-15T12:54:27.905Z,39.09
2017-04-15T12:55:27.945Z,38.89
2017-04-15T12:56:27.717Z,38.89